EWG6900 EDDH-EDLW
Flight info
| Callsign | EWG6900 |
|---|---|
| Flight time | 0h 36m |
| Altitude | 24000 |
| Route | HABFU1G/33 HABFU Y348 MAWEQ Z718 OSNAD M170 HMM N853 DOMEG DOMEG2A |
| Aircraft | A20N/M-SDE2E3FGHIRWXY/LB1 |
Departure
| Time | 2026-05-06 15:41 |
|---|---|
| Airport | Hamburg Helmut Schmidt Airport (EDDH) |
Arrival
| Time | 2026-05-06 16:17 |
|---|---|
| Airport | Dortmund Airport (EDLW) |
| Time | Latitude | Longitude | Altitude | Speed | Heading |
|---|---|---|---|---|---|
| 2026-05-06 14:54 | 53.62806 | 10.00243 | 40 ft | 0 kts | 63° |
| 2026-05-06 15:25 | 53.62805 | 10.00239 | 40 ft | 0 kts | 63° |
| 2026-05-06 15:26 | 53.62803 | 10.00231 | 40 ft | 2 kts | 62° |
| 2026-05-06 15:26 | 53.62794 | 10.00211 | 40 ft | 2 kts | 57° |
| 2026-05-06 15:26 | 53.62786 | 10.00189 | 40 ft | 2 kts | 58° |
| 2026-05-06 15:26 | 53.62779 | 10.00168 | 39 ft | 2 kts | 58° |
| 2026-05-06 15:27 | 53.62771 | 10.00148 | 39 ft | 1 kts | 75° |
| 2026-05-06 15:27 | 53.62772 | 10.00131 | 39 ft | 1 kts | 129° |
| 2026-05-06 15:27 | 53.62779 | 10.00123 | 39 ft | 1 kts | 171° |
| 2026-05-06 15:27 | 53.62785 | 10.00120 | 38 ft | 0 kts | 154° |
| 2026-05-06 15:30 | 53.62780 | 10.00124 | 38 ft | 3 kts | 152° |
| 2026-05-06 15:31 | 53.62746 | 10.00155 | 40 ft | 7 kts | 151° |
| 2026-05-06 15:31 | 53.62702 | 10.00194 | 41 ft | 6 kts | 154° |
| 2026-05-06 15:31 | 53.62660 | 10.00229 | 43 ft | 6 kts | 152° |
| 2026-05-06 15:32 | 53.62582 | 10.00239 | 43 ft | 5 kts | 232° |
| 2026-05-06 15:32 | 53.62575 | 10.00221 | 43 ft | 0 kts | 240° |
| 2026-05-06 15:32 | 53.62573 | 10.00216 | 43 ft | 0 kts | 242° |
| 2026-05-06 15:33 | 53.62573 | 10.00215 | 43 ft | 0 kts | 242° |
| 2026-05-06 15:33 | 53.62573 | 10.00214 | 43 ft | 0 kts | 242° |
| 2026-05-06 15:35 | 53.62554 | 10.00151 | 44 ft | 9 kts | 242° |
| 2026-05-06 15:35 | 53.62533 | 10.00057 | 44 ft | 4 kts | 272° |
| 2026-05-06 15:35 | 53.62549 | 10.00022 | 44 ft | 4 kts | 325° |
| 2026-05-06 15:35 | 53.62552 | 10.00019 | 44 ft | 0 kts | 328° |
| 2026-05-06 15:40 | 53.62620 | 9.99961 | 42 ft | 31 kts | 335° |
| 2026-05-06 15:40 | 53.63014 | 9.99619 | 29 ft | 108 kts | 333° |
| 2026-05-06 15:40 | 53.63873 | 9.98869 | 447 ft | 152 kts | 336° |
| 2026-05-06 15:41 | 53.64768 | 9.98077 | 1452 ft | 152 kts | 341° |
| 2026-05-06 15:41 | 53.65718 | 9.97295 | 2408 ft | 163 kts | 341° |
| 2026-05-06 15:41 | 53.66768 | 9.96423 | 3286 ft | 180 kts | 340° |
| 2026-05-06 15:41 | 53.67943 | 9.95433 | 4133 ft | 204 kts | 339° |
| 2026-05-06 15:42 | 53.69257 | 9.94304 | 5163 ft | 221 kts | 338° |
| 2026-05-06 15:42 | 53.70548 | 9.92887 | 6367 ft | 234 kts | 317° |
| 2026-05-06 15:42 | 53.71316 | 9.90503 | 7610 ft | 245 kts | 285° |
| 2026-05-06 15:42 | 53.71249 | 9.87571 | 8646 ft | 264 kts | 255° |
| 2026-05-06 15:43 | 53.70630 | 9.84527 | 9381 ft | 286 kts | 251° |
| 2026-05-06 15:43 | 53.69947 | 9.81348 | 9780 ft | 292 kts | 251° |
| 2026-05-06 15:43 | 53.69289 | 9.78200 | 10187 ft | 303 kts | 252° |
| 2026-05-06 15:43 | 53.68589 | 9.74745 | 10939 ft | 325 kts | 252° |
| 2026-05-06 15:44 | 53.67855 | 9.71045 | 11695 ft | 344 kts | 252° |
| 2026-05-06 15:44 | 53.67077 | 9.67109 | 12558 ft | 359 kts | 253° |
| 2026-05-06 15:44 | 53.66289 | 9.63135 | 13704 ft | 364 kts | 252° |
| 2026-05-06 15:44 | 53.65157 | 9.59337 | 14800 ft | 370 kts | 236° |
| 2026-05-06 15:45 | 53.63348 | 9.56231 | 15844 ft | 374 kts | 218° |
| 2026-05-06 15:45 | 53.61138 | 9.54016 | 16908 ft | 377 kts | 209° |
| 2026-05-06 15:45 | 53.58837 | 9.51943 | 17930 ft | 380 kts | 209° |
| 2026-05-06 15:45 | 53.56507 | 9.49853 | 18917 ft | 382 kts | 209° |
| 2026-05-06 15:46 | 53.54146 | 9.47721 | 19868 ft | 387 kts | 208° |
| 2026-05-06 15:46 | 53.51775 | 9.45569 | 20692 ft | 393 kts | 208° |
| 2026-05-06 15:46 | 53.49374 | 9.43383 | 21514 ft | 398 kts | 209° |
| 2026-05-06 15:46 | 53.46932 | 9.41157 | 22282 ft | 404 kts | 209° |
| 2026-05-06 15:47 | 53.44443 | 9.38896 | 23067 ft | 409 kts | 210° |
| 2026-05-06 15:47 | 53.41929 | 9.36614 | 23626 ft | 414 kts | 209° |
| 2026-05-06 15:47 | 53.39459 | 9.34372 | 23857 ft | 416 kts | 208° |
| 2026-05-06 15:47 | 53.36868 | 9.32026 | 23861 ft | 415 kts | 208° |
| 2026-05-06 15:48 | 53.34253 | 9.29883 | 23864 ft | 416 kts | 203° |
| 2026-05-06 15:48 | 53.31547 | 9.28173 | 23860 ft | 416 kts | 199° |
| 2026-05-06 15:48 | 53.28778 | 9.26911 | 23864 ft | 417 kts | 193° |
| 2026-05-06 15:48 | 53.25924 | 9.25998 | 23863 ft | 417 kts | 191° |
| 2026-05-06 15:49 | 53.23066 | 9.25150 | 23865 ft | 417 kts | 190° |
| 2026-05-06 15:49 | 53.20204 | 9.24309 | 23865 ft | 417 kts | 190° |
| 2026-05-06 15:49 | 53.17370 | 9.23475 | 23863 ft | 417 kts | 190° |
| 2026-05-06 15:49 | 53.14502 | 9.22628 | 23862 ft | 418 kts | 191° |
| 2026-05-06 15:50 | 53.11637 | 9.21780 | 23862 ft | 417 kts | 190° |
| 2026-05-06 15:50 | 53.08757 | 9.20928 | 23859 ft | 418 kts | 190° |
| 2026-05-06 15:50 | 53.05866 | 9.20073 | 23862 ft | 418 kts | 190° |
| 2026-05-06 15:50 | 53.02990 | 9.19222 | 23863 ft | 419 kts | 190° |
| 2026-05-06 15:51 | 53.00085 | 9.18364 | 23860 ft | 419 kts | 191° |
| 2026-05-06 15:51 | 52.97272 | 9.17346 | 23855 ft | 419 kts | 195° |
| 2026-05-06 15:51 | 52.94480 | 9.15876 | 23857 ft | 418 kts | 200° |
| 2026-05-06 15:51 | 52.91785 | 9.13981 | 23858 ft | 418 kts | 206° |
| 2026-05-06 15:52 | 52.89194 | 9.11773 | 23852 ft | 417 kts | 208° |
| 2026-05-06 15:52 | 52.86600 | 9.09491 | 23850 ft | 417 kts | 208° |
| 2026-05-06 15:52 | 52.84021 | 9.07214 | 23852 ft | 417 kts | 208° |
| 2026-05-06 15:52 | 52.81429 | 9.04935 | 23852 ft | 418 kts | 208° |
| 2026-05-06 15:53 | 52.78921 | 9.02737 | 23855 ft | 418 kts | 208° |
| 2026-05-06 15:53 | 52.76339 | 9.00482 | 23852 ft | 417 kts | 208° |
| 2026-05-06 15:53 | 52.73754 | 8.98232 | 23852 ft | 417 kts | 208° |
| 2026-05-06 15:53 | 52.71159 | 8.95973 | 23848 ft | 418 kts | 208° |
| 2026-05-06 15:54 | 52.68584 | 8.93735 | 23843 ft | 417 kts | 208° |
| 2026-05-06 15:54 | 52.66006 | 8.91497 | 23843 ft | 417 kts | 209° |
| 2026-05-06 15:54 | 52.63437 | 8.89269 | 23843 ft | 417 kts | 209° |
| 2026-05-06 15:54 | 52.60825 | 8.87005 | 23846 ft | 417 kts | 208° |
| 2026-05-06 15:55 | 52.58255 | 8.84784 | 23845 ft | 417 kts | 208° |
| 2026-05-06 15:55 | 52.55698 | 8.82571 | 23845 ft | 417 kts | 209° |
| 2026-05-06 15:55 | 52.53082 | 8.80304 | 23842 ft | 417 kts | 209° |
| 2026-05-06 15:55 | 52.50529 | 8.78095 | 23844 ft | 418 kts | 209° |
| 2026-05-06 15:56 | 52.47966 | 8.75882 | 23846 ft | 418 kts | 209° |
| 2026-05-06 15:56 | 52.45390 | 8.73665 | 23845 ft | 418 kts | 209° |
| 2026-05-06 15:56 | 52.42814 | 8.71454 | 23842 ft | 418 kts | 208° |
| 2026-05-06 15:56 | 52.40232 | 8.69264 | 23841 ft | 418 kts | 208° |
| 2026-05-06 15:57 | 52.37633 | 8.67061 | 23840 ft | 417 kts | 208° |
| 2026-05-06 15:57 | 52.35080 | 8.64890 | 23837 ft | 417 kts | 208° |
| 2026-05-06 15:57 | 52.32484 | 8.62679 | 23664 ft | 417 kts | 208° |
| 2026-05-06 15:57 | 52.29932 | 8.60384 | 23394 ft | 414 kts | 214° |
| 2026-05-06 15:58 | 52.27793 | 8.57358 | 23131 ft | 411 kts | 229° |
| 2026-05-06 15:58 | 52.26181 | 8.53563 | 22874 ft | 408 kts | 243° |
| 2026-05-06 15:58 | 52.25058 | 8.49340 | 22622 ft | 406 kts | 249° |
| 2026-05-06 15:58 | 52.24021 | 8.45012 | 22363 ft | 405 kts | 250° |
| 2026-05-06 15:59 | 52.23007 | 8.40764 | 22108 ft | 404 kts | 250° |
| 2026-05-06 15:59 | 52.21981 | 8.36525 | 21852 ft | 402 kts | 250° |
| 2026-05-06 15:59 | 52.20938 | 8.32477 | 21599 ft | 401 kts | 245° |
| 2026-05-06 15:59 | 52.19854 | 8.29261 | 21389 ft | 401 kts | 239° |
| 2026-05-06 16:00 | 52.18247 | 8.25615 | 21121 ft | 400 kts | 231° |
| 2026-05-06 16:00 | 52.16372 | 8.22248 | 20719 ft | 399 kts | 227° |
| 2026-05-06 16:00 | 52.14457 | 8.19014 | 20191 ft | 396 kts | 227° |
| 2026-05-06 16:00 | 52.12522 | 8.15781 | 19573 ft | 392 kts | 227° |
| 2026-05-06 16:01 | 52.10632 | 8.12617 | 18925 ft | 389 kts | 227° |
| 2026-05-06 16:01 | 52.08783 | 8.09510 | 18274 ft | 386 kts | 227° |
| 2026-05-06 16:01 | 52.06912 | 8.06361 | 17611 ft | 383 kts | 227° |
| 2026-05-06 16:01 | 52.05089 | 8.03291 | 16958 ft | 380 kts | 227° |
| 2026-05-06 16:02 | 52.03260 | 8.00215 | 16273 ft | 373 kts | 227° |
| 2026-05-06 16:02 | 52.01498 | 7.97254 | 15511 ft | 362 kts | 227° |
| 2026-05-06 16:02 | 51.99783 | 7.94369 | 14735 ft | 354 kts | 227° |
| 2026-05-06 16:02 | 51.98086 | 7.91520 | 14041 ft | 347 kts | 227° |
| 2026-05-06 16:03 | 51.96432 | 7.88743 | 13457 ft | 345 kts | 227° |
| 2026-05-06 16:03 | 51.94770 | 7.85960 | 12882 ft | 343 kts | 227° |
| 2026-05-06 16:03 | 51.93103 | 7.83180 | 12287 ft | 343 kts | 227° |
| 2026-05-06 16:03 | 51.91462 | 7.80440 | 11710 ft | 343 kts | 227° |
| 2026-05-06 16:04 | 51.89797 | 7.77665 | 11197 ft | 338 kts | 228° |
| 2026-05-06 16:04 | 51.88294 | 7.75165 | 10858 ft | 328 kts | 227° |
| 2026-05-06 16:04 | 51.86903 | 7.72862 | 10533 ft | 320 kts | 226° |
| 2026-05-06 16:04 | 51.85116 | 7.70495 | 10280 ft | 309 kts | 216° |
| 2026-05-06 16:05 | 51.83289 | 7.68768 | 10089 ft | 297 kts | 210° |
| 2026-05-06 16:05 | 51.81467 | 7.67265 | 9903 ft | 287 kts | 208° |
| 2026-05-06 16:05 | 51.80323 | 7.66345 | 9770 ft | 284 kts | 208° |
| 2026-05-06 16:05 | 51.78558 | 7.64919 | 9375 ft | 284 kts | 208° |
| 2026-05-06 16:06 | 51.76807 | 7.63492 | 8987 ft | 284 kts | 208° |
| 2026-05-06 16:06 | 51.75037 | 7.62047 | 8609 ft | 283 kts | 208° |
| 2026-05-06 16:06 | 51.73287 | 7.60612 | 8241 ft | 282 kts | 208° |
| 2026-05-06 16:06 | 51.71498 | 7.59300 | 7853 ft | 282 kts | 197° |
| 2026-05-06 16:07 | 51.69559 | 7.58925 | 7405 ft | 283 kts | 176° |
| 2026-05-06 16:07 | 51.67608 | 7.59324 | 6937 ft | 284 kts | 171° |
| 2026-05-06 16:07 | 51.65657 | 7.59852 | 6464 ft | 285 kts | 171° |
| 2026-05-06 16:07 | 51.63711 | 7.60371 | 5986 ft | 285 kts | 170° |
| 2026-05-06 16:08 | 51.61741 | 7.60872 | 5505 ft | 285 kts | 171° |
| 2026-05-06 16:08 | 51.59798 | 7.61341 | 5034 ft | 285 kts | 170° |
| 2026-05-06 16:08 | 51.57826 | 7.61818 | 4574 ft | 283 kts | 170° |
| 2026-05-06 16:08 | 51.55880 | 7.62285 | 4157 ft | 281 kts | 171° |
| 2026-05-06 16:09 | 51.53972 | 7.62724 | 3772 ft | 277 kts | 173° |
| 2026-05-06 16:09 | 51.52092 | 7.62366 | 3390 ft | 274 kts | 205° |
| 2026-05-06 16:09 | 51.50583 | 7.60603 | 3143 ft | 265 kts | 225° |
| 2026-05-06 16:09 | 51.49278 | 7.58642 | 3048 ft | 251 kts | 225° |
| 2026-05-06 16:10 | 51.48029 | 7.56790 | 3005 ft | 238 kts | 224° |
| 2026-05-06 16:10 | 51.46825 | 7.55043 | 2990 ft | 232 kts | 224° |
| 2026-05-06 16:10 | 51.45630 | 7.53334 | 2991 ft | 231 kts | 224° |
| 2026-05-06 16:10 | 51.44417 | 7.51614 | 3008 ft | 231 kts | 223° |
| 2026-05-06 16:11 | 51.43213 | 7.49914 | 3006 ft | 232 kts | 223° |
| 2026-05-06 16:11 | 51.42012 | 7.48220 | 3002 ft | 231 kts | 223° |
| 2026-05-06 16:11 | 51.40928 | 7.46329 | 2966 ft | 221 kts | 248° |
| 2026-05-06 16:11 | 51.40755 | 7.44126 | 2956 ft | 186 kts | 290° |
| 2026-05-06 16:12 | 51.41293 | 7.42498 | 3010 ft | 154 kts | 316° |
| 2026-05-06 16:12 | 51.42082 | 7.41517 | 2983 ft | 131 kts | 338° |
| 2026-05-06 16:12 | 51.42903 | 7.41109 | 2959 ft | 121 kts | 356° |
| 2026-05-06 16:12 | 51.43745 | 7.41155 | 2936 ft | 122 kts | 13° |
| 2026-05-06 16:13 | 51.44506 | 7.41673 | 2745 ft | 122 kts | 36° |
| 2026-05-06 16:13 | 51.45078 | 7.42676 | 2590 ft | 122 kts | 50° |
| 2026-05-06 16:13 | 51.45564 | 7.43780 | 2580 ft | 120 kts | 51° |
| 2026-05-06 16:13 | 51.46033 | 7.44907 | 2596 ft | 121 kts | 54° |
| 2026-05-06 16:14 | 51.46466 | 7.46070 | 2494 ft | 121 kts | 56° |
| 2026-05-06 16:14 | 51.46899 | 7.47214 | 2306 ft | 120 kts | 56° |
| 2026-05-06 16:14 | 51.47312 | 7.48369 | 2140 ft | 120 kts | 57° |
| 2026-05-06 16:14 | 51.47712 | 7.49543 | 1981 ft | 119 kts | 57° |
| 2026-05-06 16:15 | 51.48127 | 7.50686 | 1820 ft | 119 kts | 57° |
| 2026-05-06 16:15 | 51.48526 | 7.51843 | 1664 ft | 119 kts | 59° |
| 2026-05-06 16:15 | 51.48915 | 7.53013 | 1519 ft | 118 kts | 57° |
| 2026-05-06 16:15 | 51.49336 | 7.54159 | 1353 ft | 118 kts | 57° |
| 2026-05-06 16:16 | 51.49754 | 7.55303 | 1187 ft | 118 kts | 58° |
| 2026-05-06 16:16 | 51.50154 | 7.56453 | 1007 ft | 118 kts | 59° |
| 2026-05-06 16:16 | 51.50554 | 7.57585 | 850 ft | 117 kts | 58° |
| 2026-05-06 16:16 | 51.50961 | 7.58728 | 714 ft | 117 kts | 59° |
| 2026-05-06 16:17 | 51.51352 | 7.59856 | 539 ft | 116 kts | 59° |
| 2026-05-06 16:17 | 51.51749 | 7.60980 | 440 ft | 115 kts | 59° |
| 2026-05-06 16:17 | 51.52091 | 7.61956 | 402 ft | 68 kts | 61° |
| 2026-05-06 16:17 | 51.52179 | 7.62211 | 400 ft | 0 kts | 61° |
| 2026-05-06 16:18 | 51.52193 | 7.62258 | 398 ft | 9 kts | 72° |
| 2026-05-06 16:18 | 51.52154 | 7.62339 | 398 ft | 10 kts | 151° |
| 2026-05-06 16:18 | 51.52089 | 7.62396 | 400 ft | 10 kts | 162° |
| 2026-05-06 16:18 | 51.52033 | 7.62340 | 403 ft | 9 kts | 238° |
| 2026-05-06 16:19 | 51.52003 | 7.62251 | 406 ft | 8 kts | 242° |
| 2026-05-06 16:19 | 51.51975 | 7.62172 | 408 ft | 7 kts | 240° |
| 2026-05-06 16:19 | 51.51946 | 7.62089 | 409 ft | 10 kts | 241° |
| 2026-05-06 16:19 | 51.51898 | 7.61953 | 412 ft | 17 kts | 240° |
| 2026-05-06 16:20 | 51.51834 | 7.61772 | 414 ft | 17 kts | 242° |
| 2026-05-06 16:20 | 51.51782 | 7.61624 | 417 ft | 14 kts | 240° |
| 2026-05-06 16:20 | 51.51746 | 7.61524 | 420 ft | 7 kts | 239° |
| 2026-05-06 16:20 | 51.51718 | 7.61482 | 421 ft | 3 kts | 180° |
| 2026-05-06 16:21 | 51.51703 | 7.61488 | 422 ft | 1 kts | 161° |
| 2026-05-06 16:21 | 51.51684 | 7.61502 | 423 ft | 0 kts | 151° |
| 2026-05-06 16:21 | 51.51675 | 7.61510 | 424 ft | 0 kts | 152° |